Time;durP1;ratioP1;P1;durP2;ratioP2;P2;SDS_P1;SDS_P2;PMS_P1;PMS_P2;Temp;Humidity;BMP_temperature;BMP_pressure;BME280_temperature;BME280_humidity;BME280_pressure;Samples;Min_cycle;Max_cycle;Signal;HPM_P1;HPM_P2
2022/06/12 00:00:10;;;;;;;;;;;;;;;24.66;54.45;99999.97;7310885;19;129523;-38
2022/06/12 00:02:35;;;;;;;;;;;;;;;24.65;54.70;99999.13;7312358;19;129175;-38
2022/06/12 00:05:01;;;;;;;;;;;;;;;24.68;54.25;99998.00;7308549;19;129165;-38
2022/06/12 00:07:26;;;;;;;;;;;;;;;24.65;54.23;100003.53;7310455;19;129337;-41
2022/06/12 00:09:51;;;;;;;;;;;;;;;24.67;54.87;99998.97;7311981;19;129093;-37
2022/06/12 00:12:17;;;;;;;;;;;;;;;24.33;50.11;100004.84;7310850;19;129129;-36
2022/06/12 00:14:42;;;;;;;;;;;;;;;23.99;49.20;100005.59;7311865;19;129929;-37
2022/06/12 00:17:08;;;;;;;;;;;;;;;23.95;48.92;99998.94;7310526;19;129258;-36
2022/06/12 00:19:33;;;;;;;;;;;;;;;23.93;48.18;99996.44;7309951;19;129977;-36
2022/06/12 00:21:59;;;;;;;;;;;;;;;24.22;54.03;100001.59;7311396;19;128953;-39
2022/06/12 00:24:26;;;;;;;;;;;;;;;24.37;54.27;99998.34;7311523;19;129098;-37
2022/06/12 00:26:54;;;;;;;;;;;;;;;24.45;54.20;99993.16;7312332;19;130634;-36
2022/06/12 00:29:21;;;;;;;;;;;;;;;24.53;53.90;99994.25;7309667;19;129131;-36
2022/06/12 00:31:49;;;;;;;;;;;;;;;24.58;54.48;99989.38;7312300;19;130072;-38
2022/06/12 00:34:15;;;;;;;;;;;;;;;24.63;54.52;99989.72;7310890;19;129446;-39
2022/06/12 00:36:41;;;;;;;;;;;;;;;24.63;54.39;99987.09;7308563;19;129372;-37
2022/06/12 00:39:08;;;;;;;;;;;;;;;24.65;54.67;99993.03;7308014;19;129385;-37
2022/06/12 00:41:33;;;;;;;;;;;;;;;24.66;54.33;99992.06;7308924;19;129016;-36
2022/06/12 00:43:59;;;;;;;;;;;;;;;24.68;54.65;99987.50;7308763;19;129976;-38
2022/06/12 00:46:33;;;;;;;;;;;;;;;24.67;54.26;99991.06;7310687;19;129558;-36
2022/06/12 00:48:58;;;;;;;;;;;;;;;24.58;54.39;99971.75;7307275;19;131440;-38
2022/06/12 00:51:23;;;;;;;;;;;;;;;24.70;54.45;99990.81;7309638;19;129470;-37
2022/06/12 00:53:54;;;;;;;;;;;;;;;24.33;50.52;99978.56;7311459;19;130013;-38
2022/06/12 00:56:24;;;;;;;;;;;;;;;24.03;49.64;99992.00;7317086;19;130444;-37
2022/06/12 00:58:52;;;;;;;;;;;;;;;23.96;49.21;99990.94;7313727;19;129367;-37
2022/06/12 01:01:24;;;;;;;;;;;;;;;23.87;48.19;99973.41;7316348;19;129365;-38
2022/06/12 01:06:33;;;;;;;;;;;;;;;24.40;53.92;99990.16;7315447;19;130850;-36
2022/06/12 01:08:58;;;;;;;;;;;;;;;24.46;54.32;99989.56;7312892;19;128983;-36
2022/06/12 01:11:24;;;;;;;;;;;;;;;24.56;54.25;100000.00;7314752;19;129214;-38
2022/06/12 01:13:49;;;;;;;;;;;;;;;24.58;54.62;99998.06;7316236;19;129544;-37
2022/06/12 01:16:16;;;;;;;;;;;;;;;24.64;54.00;99986.13;7315553;19;130201;-38
2022/06/12 01:18:43;;;;;;;;;;;;;;;24.66;54.51;99984.19;7315093;19;129692;-40
2022/06/12 01:21:27;;;;;;;;;;;;;;;24.69;54.43;99990.00;7315616;19;129471;-38
2022/06/12 01:24:01;;;;;;;;;;;;;;;24.70;54.22;99980.28;7317802;19;130241;-39
2022/06/12 01:26:29;;;;;;;;;;;;;;;24.70;54.18;99972.41;7317164;19;130095;-39
2022/06/12 01:28:57;;;;;;;;;;;;;;;24.70;54.03;99975.03;7312211;19;129806;-38
2022/06/12 01:31:41;;;;;;;;;;;;;;;24.72;54.61;99967.81;7317459;19;129585;-39
2022/06/12 01:34:09;;;;;;;;;;;;;;;24.73;54.38;99966.84;7316137;19;130153;-39
2022/06/12 01:37:03;;;;;;;;;;;;;;;24.10;49.97;99958.09;7316488;19;129849;-38
2022/06/12 01:39:31;;;;;;;;;;;;;;;24.00;49.29;99968.66;7311472;19;129318;-38
2022/06/12 01:42:05;;;;;;;;;;;;;;;23.98;48.65;99967.97;7316430;19;129057;-38
2022/06/12 01:44:36;;;;;;;;;;;;;;;24.17;53.70;99972.31;7316819;19;129219;-39
2022/06/12 01:47:02;;;;;;;;;;;;;;;24.38;54.00;99971.06;7315066;19;129773;-38
2022/06/12 01:49:42;;;;;;;;;;;;;;;24.48;53.87;99966.59;7315925;19;129099;-39
2022/06/12 01:52:21;;;;;;;;;;;;;;;24.58;53.89;99965.69;7314587;19;129327;-39
2022/06/12 01:54:49;;;;;;;;;;;;;;;24.57;54.48;99959.59;7315939;19;129156;-40
2022/06/12 01:57:19;;;;;;;;;;;;;;;24.68;54.52;99971.72;7314032;19;131192;-39
2022/06/12 01:59:50;;;;;;;;;;;;;;;24.71;54.20;99971.44;7315664;19;129612;-38
2022/06/12 02:02:18;;;;;;;;;;;;;;;24.73;54.62;99964.19;7315383;19;128818;-40
2022/06/12 02:05:01;;;;;;;;;;;;;;;24.73;54.21;99964.19;7314704;19;130247;-39
2022/06/12 02:07:38;;;;;;;;;;;;;;;24.74;54.89;99966.72;7312875;19;130569;-36
2022/06/12 02:10:13;;;;;;;;;;;;;;;24.74;54.57;99973.75;7314207;19;129968;-39
2022/06/12 02:15:29;;;;;;;;;;;;;;;24.76;54.97;99969.19;7315422;19;128856;-39
2022/06/12 02:18:06;;;;;;;;;;;;;;;24.25;49.04;99964.53;7313333;19;129669;-38
2022/06/12 02:20:37;;;;;;;;;;;;;;;24.02;49.27;99966.72;7314190;19;128977;-39
2022/06/12 02:23:06;;;;;;;;;;;;;;;23.98;48.70;99965.34;7312898;19;129599;-38
2022/06/12 02:25:33;;;;;;;;;;;;;;;24.13;52.69;99963.09;7315516;19;130822;-39
2022/06/12 02:28:01;;;;;;;;;;;;;;;24.36;54.19;99956.44;7312850;19;134497;-39
2022/06/12 02:30:33;;;;;;;;;;;;;;;24.46;54.30;99959.84;7314779;19;129340;-38
2022/06/12 02:33:01;;;;;;;;;;;;;;;24.56;53.85;99954.50;7314219;19;129918;-39
2022/06/12 02:35:30;;;;;;;;;;;;;;;24.60;54.22;99956.66;7314826;19;130279;-40
2022/06/12 02:37:58;;;;;;;;;;;;;;;24.66;54.26;99957.88;7313364;19;129406;-41
2022/06/12 02:40:26;;;;;;;;;;;;;;;24.69;53.90;99962.88;7315589;19;130326;-39
2022/06/12 02:42:52;;;;;;;;;;;;;;;24.70;54.45;99954.00;7314728;19;129519;-38
2022/06/12 02:45:24;;;;;;;;;;;;;;;24.71;54.23;99950.41;7313169;19;130087;-40
2022/06/12 02:47:51;;;;;;;;;;;;;;;24.72;54.39;99957.31;7309447;19;130479;-40
2022/06/12 02:50:21;;;;;;;;;;;;;;;24.62;54.63;99932.84;7311686;19;129064;-38
2022/06/12 02:53:12;;;;;;;;;;;;;;;24.73;54.39;99943.16;7312924;19;129428;-40
2022/06/12 02:55:44;;;;;;;;;;;;;;;24.73;54.36;99943.16;7312126;19;129735;-37
2022/06/12 02:58:09;;;;;;;;;;;;;;;24.71;54.48;99948.59;7312509;19;130013;-37
2022/06/12 03:00:35;;;;;;;;;;;;;;;24.10;49.60;99951.06;7312059;19;129727;-37
2022/06/12 03:03:03;;;;;;;;;;;;;;;24.02;48.98;99937.84;7309672;19;129755;-37
2022/06/12 03:05:36;;;;;;;;;;;;;;;23.89;48.32;99918.94;7312748;19;130959;-36
2022/06/12 03:08:06;;;;;;;;;;;;;;;24.26;54.37;99934.66;7309811;19;130384;-37
2022/06/12 03:10:37;;;;;;;;;;;;;;;24.34;53.88;99926.84;7314218;19;129095;-37
2022/06/12 03:13:05;;;;;;;;;;;;;;;24.53;54.27;99941.66;7310493;19;129072;-36
2022/06/12 03:15:33;;;;;;;;;;;;;;;24.61;53.85;99944.38;7313857;19;132679;-37
2022/06/12 03:18:00;;;;;;;;;;;;;;;24.64;54.67;99939.63;7306377;19;129941;-37
2022/06/12 03:20:28;;;;;;;;;;;;;;;24.68;54.41;99941.00;7311010;19;129013;-37
2022/06/12 03:23:07;;;;;;;;;;;;;;;24.71;54.37;99940.69;7312336;19;129427;-36
2022/06/12 03:25:48;;;;;;;;;;;;;;;24.72;54.37;99946.78;7313571;19;129246;-37
2022/06/12 03:28:27;;;;;;;;;;;;;;;24.73;54.76;99948.44;7309267;19;129803;-37
2022/06/12 03:31:03;;;;;;;;;;;;;;;24.73;54.44;99943.16;7312435;19;128959;-37
2022/06/12 03:33:28;;;;;;;;;;;;;;;24.73;54.88;99940.53;7312858;19;129003;-37
2022/06/12 03:36:06;;;;;;;;;;;;;;;24.76;54.33;99940.25;7313392;19;129488;-37
2022/06/12 03:38:45;;;;;;;;;;;;;;;24.75;54.58;99935.97;7310485;19;129962;-37
2022/06/12 03:41:19;;;;;;;;;;;;;;;24.20;49.74;99930.81;7311418;19;129467;-36
2022/06/12 03:44:22;;;;;;;;;;;;;;;24.01;49.48;99936.19;7313070;19;129266;-36
2022/06/12 03:46:54;;;;;;;;;;;;;;;23.91;48.62;99932.75;7307254;19;131479;-37
2022/06/12 03:49:20;;;;;;;;;;;;;;;24.14;53.48;99952.44;7306275;19;130449;-37
2022/06/12 03:51:48;;;;;;;;;;;;;;;24.36;54.06;99946.75;7309951;19;129836;-37
2022/06/12 03:54:33;;;;;;;;;;;;;;;24.48;54.04;99941.28;7312605;19;129098;-37
2022/06/12 04:00:16;;;;;;;;;;;;;;;24.65;54.38;99943.91;7310470;19;130143;-37
2022/06/12 04:02:42;;;;;;;;;;;;;;;24.69;54.38;99947.09;7311068;19;129094;-37
2022/06/12 04:05:09;;;;;;;;;;;;;;;24.71;54.57;99945.16;7312061;19;129267;-37
2022/06/12 04:07:37;;;;;;;;;;;;;;;24.72;54.55;99944.16;7306844;19;129630;-37
2022/06/12 04:10:03;;;;;;;;;;;;;;;24.74;54.41;99944.84;7310672;19;129687;-37
2022/06/12 04:12:31;;;;;;;;;;;;;;;24.60;53.94;99919.88;7310842;19;129777;-36
2022/06/12 04:15:00;;;;;;;;;;;;;;;24.72;54.23;99941.53;7311027;19;129088;-37
2022/06/12 04:17:25;;;;;;;;;;;;;;;24.66;54.48;99934.22;7309690;19;130327;-37
2022/06/12 04:19:59;;;;;;;;;;;;;;;24.73;54.35;99941.38;7308704;19;131443;-40
2022/06/12 04:23:00;;;;;;;;;;;;;;;24.31;49.97;99948.97;7312465;19;129555;-40
2022/06/12 04:25:30;;;;;;;;;;;;;;;24.03;49.49;99943.94;7306237;19;129854;-41
2022/06/12 04:27:55;;;;;;;;;;;;;;;24.01;48.72;99944.06;7308215;19;129764;-40
2022/06/12 04:30:23;;;;;;;;;;;;;;;24.10;52.26;99945.81;7315810;19;129388;-40
2022/06/12 04:32:49;;;;;;;;;;;;;;;24.34;53.96;99947.88;7317719;19;129762;-39
2022/06/12 04:35:15;;;;;;;;;;;;;;;24.48;54.56;99935.03;7316427;19;128865;-40
2022/06/12 04:37:42;;;;;;;;;;;;;;;24.56;54.04;99936.09;7313122;19;131245;-39
2022/06/12 04:40:13;;;;;;;;;;;;;;;24.62;54.56;99935.50;7315840;19;130870;-39
2022/06/12 04:42:39;;;;;;;;;;;;;;;24.67;53.99;99933.22;7319072;19;129208;-40
2022/06/12 04:45:05;;;;;;;;;;;;;;;24.70;54.00;99933.78;7319136;19;129241;-40
2022/06/12 04:47:31;;;;;;;;;;;;;;;24.72;54.45;99928.38;7314052;19;129481;-40
2022/06/12 04:49:57;;;;;;;;;;;;;;;24.73;54.72;99919.50;7317893;19;129143;-39
2022/06/12 04:52:23;;;;;;;;;;;;;;;24.75;54.41;99926.28;7312446;19;130459;-39
2022/06/12 04:54:48;;;;;;;;;;;;;;;24.75;54.13;99925.44;7318413;19;129234;-40
2022/06/12 04:57:16;;;;;;;;;;;;;;;24.68;55.04;99913.88;7312905;19;130508;-39
2022/06/12 04:59:42;;;;;;;;;;;;;;;24.76;54.86;99921.84;7315050;19;130541;-39
2022/06/12 05:02:07;;;;;;;;;;;;;;;24.75;54.98;99917.56;7313589;19;130383;-36
2022/06/12 05:04:33;;;;;;;;;;;;;;;24.60;52.39;99924.28;7315160;19;130768;-39
2022/06/12 05:06:59;;;;;;;;;;;;;;;24.12;49.27;99928.09;7315821;19;129783;-40
2022/06/12 05:09:26;;;;;;;;;;;;;;;24.02;48.91;99924.72;7303606;19;130674;-40
2022/06/12 05:11:52;;;;;;;;;;;;;;;24.01;48.92;99919.59;7315705;19;129062;-40
2022/06/12 05:14:17;;;;;;;;;;;;;;;24.25;53.27;99922.47;7310733;19;130168;-38
2022/06/12 05:16:44;;;;;;;;;;;;;;;24.33;53.91;99904.16;7314825;19;130035;-39
2022/06/12 05:19:11;;;;;;;;;;;;;;;24.53;53.83;99920.63;7312524;19;130348;-40
2022/06/12 05:21:37;;;;;;;;;;;;;;;24.61;53.91;99918.88;7307276;19;130111;-39
2022/06/12 05:24:03;;;;;;;;;;;;;;;24.65;54.42;99914.97;7313072;19;129043;-41
2022/06/12 05:26:30;;;;;;;;;;;;;;;24.70;53.85;99920.66;7313234;19;131012;-37
2022/06/12 05:28:55;;;;;;;;;;;;;;;24.73;54.24;99911.63;7312040;19;131150;-41
2022/06/12 05:31:21;;;;;;;;;;;;;;;24.75;54.30;99914.91;7316016;19;129152;-38
2022/06/12 05:33:46;;;;;;;;;;;;;;;24.76;54.66;99908.69;7313594;19;128929;-39
2022/06/12 05:36:13;;;;;;;;;;;;;;;24.77;54.07;99905.09;7315702;19;131260;-37
2022/06/12 05:38:39;;;;;;;;;;;;;;;24.76;54.56;99901.63;7310659;19;130170;-37
2022/06/12 05:41:05;;;;;;;;;;;;;;;24.77;54.17;99902.47;7311014;19;128941;-37
2022/06/12 05:43:30;;;;;;;;;;;;;;;24.66;54.93;99879.00;7315366;19;129074;-37
2022/06/12 05:45:56;;;;;;;;;;;;;;;24.40;50.05;99895.53;7312229;19;129542;-37
2022/06/12 05:48:21;;;;;;;;;;;;;;;24.00;49.46;99882.00;7309660;19;130154;-37
2022/06/12 05:50:55;;;;;;;;;;;;;;;23.92;48.77;99881.03;7312782;19;129530;-37
2022/06/12 05:53:21;;;;;;;;;;;;;;;24.01;48.83;99888.91;7312209;19;131899;-37
2022/06/12 05:55:47;;;;;;;;;;;;;;;24.29;53.88;99902.81;7313421;19;130079;-37
2022/06/12 05:58:14;;;;;;;;;;;;;;;24.45;54.39;99895.09;7311268;19;129725;-36
2022/06/12 06:00:39;;;;;;;;;;;;;;;24.54;53.94;99896.81;7306859;19;130364;-37
2022/06/12 06:03:04;;;;;;;;;;;;;;;24.61;53.92;99908.38;7312309;19;129126;-36
2022/06/12 06:05:30;;;;;;;;;;;;;;;24.67;54.13;99896.44;7313296;19;130518;-37
2022/06/12 06:07:56;;;;;;;;;;;;;;;24.72;53.89;99896.81;7312463;19;130380;-37
2022/06/12 06:10:23;;;;;;;;;;;;;;;24.74;54.31;99900.13;7312887;19;130180;-37
2022/06/12 06:12:49;;;;;;;;;;;;;;;24.67;54.07;99883.28;7312787;19;129899;-36
2022/06/12 06:15:14;;;;;;;;;;;;;;;24.77;54.38;99897.19;7315244;19;129504;-37
2022/06/12 06:17:40;;;;;;;;;;;;;;;24.75;54.41;99893.88;7312743;19;130632;-36
2022/06/12 06:20:06;;;;;;;;;;;;;;;24.77;54.29;99891.94;7313779;19;130762;-37
2022/06/12 06:22:32;;;;;;;;;;;;;;;24.76;54.83;99895.56;7314399;19;129076;-37
2022/06/12 06:24:57;;;;;;;;;;;;;;;24.77;54.65;99898.03;7314854;19;129221;-36
2022/06/12 06:27:23;;;;;;;;;;;;;;;24.76;54.69;99892.94;7313216;19;129261;-36
2022/06/12 06:29:48;;;;;;;;;;;;;;;24.18;49.26;99890.72;7312046;19;129199;-37
2022/06/12 06:32:13;;;;;;;;;;;;;;;24.04;48.72;99893.88;7312674;19;129823;-37
2022/06/12 06:34:40;;;;;;;;;;;;;;;24.00;48.29;99882.00;7314017;19;129661;-37
2022/06/12 06:37:07;;;;;;;;;;;;;;;24.14;52.51;99889.38;7311529;19;130204;-36
2022/06/12 06:39:32;;;;;;;;;;;;;;;24.37;54.07;99890.59;7306866;19;130059;-37
2022/06/12 06:41:58;;;;;;;;;;;;;;;24.48;53.95;99887.72;7311683;19;129725;-36
2022/06/12 06:47:07;;;;;;;;;;;;;;;24.60;54.49;99880.44;7311966;19;130779;-37
2022/06/12 06:49:33;;;;;;;;;;;;;;;24.67;54.33;99888.53;7307885;19;129298;-37
2022/06/12 06:51:58;;;;;;;;;;;;;;;24.69;54.49;99879.56;7311821;19;129604;-37
2022/06/12 06:54:23;;;;;;;;;;;;;;;24.71;54.74;99876.78;7310613;19;130075;-37
2022/06/12 06:56:49;;;;;;;;;;;;;;;24.73;54.30;99880.06;7313156;19;131396;-37
2022/06/12 06:59:14;;;;;;;;;;;;;;;24.64;54.23;99857.28;7305729;19;131286;-37
2022/06/12 07:01:39;;;;;;;;;;;;;;;24.74;54.26;99881.72;7312572;19;129705;-37
2022/06/12 07:04:06;;;;;;;;;;;;;;;24.74;54.52;99868.59;7310480;19;130427;-37
2022/06/12 07:06:31;;;;;;;;;;;;;;;24.76;54.65;99869.25;7311918;19;129687;-36
2022/06/12 07:08:56;;;;;;;;;;;;;;;24.75;54.77;99868.44;7307166;19;129318;-36
2022/06/12 07:11:23;;;;;;;;;;;;;;;24.26;49.40;99867.16;7310507;19;129254;-36
2022/06/12 07:13:49;;;;;;;;;;;;;;;24.05;49.16;99858.75;7309976;19;130240;-36
2022/06/12 07:16:14;;;;;;;;;;;;;;;24.00;48.29;99868.03;7309679;19;130392;-36
2022/06/12 07:18:39;;;;;;;;;;;;;;;24.16;53.22;99866.41;7307355;19;129116;-37
2022/06/12 07:21:05;;;;;;;;;;;;;;;24.39;54.26;99864.16;7309927;19;129247;-37
2022/06/12 07:23:31;;;;;;;;;;;;;;;24.48;53.65;99854.53;7310939;19;129185;-37
2022/06/12 07:25:58;;;;;;;;;;;;;;;24.58;53.91;99861.34;7310115;19;129154;-36
2022/06/12 07:28:25;;;;;;;;;;;;;;;24.65;53.72;99862.41;7308402;19;129391;-36
2022/06/12 07:30:51;;;;;;;;;;;;;;;24.71;54.54;99866.25;7309617;19;129458;-37
2022/06/12 07:33:16;;;;;;;;;;;;;;;24.64;54.45;99847.63;7311575;19;131405;-36
2022/06/12 07:35:43;;;;;;;;;;;;;;;24.76;54.32;99866.63;7311012;19;129748;-37
2022/06/12 07:38:09;;;;;;;;;;;;;;;24.75;54.46;99867.59;7308414;19;130282;-37
2022/06/12 07:40:43;;;;;;;;;;;;;;;24.74;54.06;99866.78;7309256;19;129254;-36
2022/06/12 07:43:08;;;;;;;;;;;;;;;24.75;53.96;99862.31;7309092;19;130009;-37
2022/06/12 07:45:34;;;;;;;;;;;;;;;24.78;54.09;99862.03;7309470;19;131016;-36
2022/06/12 07:47:59;;;;;;;;;;;;;;;24.76;54.69;99858.75;7308680;19;129888;-37
2022/06/12 07:50:25;;;;;;;;;;;;;;;24.77;54.27;99860.38;7307606;19;129516;-36
2022/06/12 07:52:50;;;;;;;;;;;;;;;24.18;48.73;99853.13;7307925;19;129566;-36
2022/06/12 07:55:17;;;;;;;;;;;;;;;24.03;48.46;99859.88;7310043;19;129295;-38
2022/06/12 07:57:44;;;;;;;;;;;;;;;23.89;48.72;99834.09;7307266;19;128942;-37
2022/06/12 08:00:10;;;;;;;;;;;;;;;24.11;53.90;99837.13;7307195;19;130716;-37
2022/06/12 08:02:35;;;;;;;;;;;;;;;24.43;53.52;99858.44;7308601;19;130166;-37
2022/06/12 08:05:01;;;;;;;;;;;;;;;24.55;54.30;99860.81;7307898;19;128989;-36
2022/06/12 08:07:26;;;;;;;;;;;;;;;24.63;53.59;99858.25;7310588;19;129142;-36
2022/06/12 08:09:51;;;;;;;;;;;;;;;24.69;54.31;99858.53;7304624;19;129907;-37
2022/06/12 08:12:16;;;;;;;;;;;;;;;24.71;53.49;99855.75;7310918;19;130149;-36
2022/06/12 08:14:42;;;;;;;;;;;;;;;24.67;54.44;99838.56;7304856;19;129568;-37
2022/06/12 08:17:07;;;;;;;;;;;;;;;24.75;53.73;99852.66;7302230;19;130110;-37
2022/06/12 08:22:17;;;;;;;;;;;;;;;24.68;54.32;99846.34;7305313;19;130835;-36
2022/06/12 08:24:43;;;;;;;;;;;;;;;24.75;54.47;99855.28;7309967;19;129481;-37
2022/06/12 08:27:08;;;;;;;;;;;;;;;24.77;54.66;99857.75;7304684;19;131511;-37
2022/06/12 08:29:34;;;;;;;;;;;;;;;24.77;54.32;99852.50;7306419;19;129244;-37
2022/06/12 08:32:05;;;;;;;;;;;;;;;24.41;49.29;99860.38;7307346;19;129766;-37
2022/06/12 08:34:32;;;;;;;;;;;;;;;24.08;48.65;99855.81;7306484;19;130632;-37
2022/06/12 08:37:00;;;;;;;;;;;;;;;24.03;49.07;99844.91;7308424;19;129700;-37
2022/06/12 08:39:27;;;;;;;;;;;;;;;24.10;51.21;99848.59;7304263;19;130185;-36
2022/06/12 08:42:07;;;;;;;;;;;;;;;24.36;53.64;99846.06;7309329;19;129074;-37
2022/06/12 08:44:37;;;;;;;;;;;;;;;24.52;53.82;99848.00;7306912;19;130725;-36
2022/06/12 08:47:02;;;;;;;;;;;;;;;24.62;54.24;99846.09;7309227;19;129114;-37
2022/06/12 08:49:36;;;;;;;;;;;;;;;24.69;54.32;99847.19;7304586;19;129409;-36
2022/06/12 08:52:09;;;;;;;;;;;;;;;24.72;53.56;99838.97;7307209;19;130977;-36
2022/06/12 08:54:40;;;;;;;;;;;;;;;24.74;53.74;99839.66;7308166;19;130384;-37
2022/06/12 08:57:18;;;;;;;;;;;;;;;24.75;53.95;99836.03;7308525;19;129539;-37
2022/06/12 08:59:47;;;;;;;;;;;;;;;24.76;54.40;99833.25;7305703;19;130565;-37
2022/06/12 09:02:23;;;;;;;;;;;;;;;24.78;54.47;99830.47;7306047;19;129638;-37
2022/06/12 09:04:48;;;;;;;;;;;;;;;24.77;54.42;99837.53;7308023;19;130478;-37
2022/06/12 09:07:18;;;;;;;;;;;;;;;24.78;53.91;99833.09;7307740;19;129250;-37
2022/06/12 09:09:48;;;;;;;;;;;;;;;24.75;54.11;99825.50;7305440;19;129021;-36
2022/06/12 09:12:19;;;;;;;;;;;;;;;24.77;54.74;99823.56;7307220;19;129730;-37
2022/06/12 09:14:51;;;;;;;;;;;;;;;24.30;49.30;99829.09;7306731;19;130567;-37
2022/06/12 09:17:19;;;;;;;;;;;;;;;24.05;48.56;99818.50;7314333;19;128885;-37
2022/06/12 09:19:53;;;;;;;;;;;;;;;24.02;48.59;99811.75;7311545;19;129862;-36
2022/06/12 09:22:47;;;;;;;;;;;;;;;24.13;52.07;99814.16;7314532;19;129400;-37
2022/06/12 09:25:19;;;;;;;;;;;;;;;24.35;54.29;99803.19;7310238;19;130703;-36
2022/06/12 09:27:44;;;;;;;;;;;;;;;24.53;54.15;99815.50;7313865;19;129849;-36
2022/06/12 09:30:13;;;;;;;;;;;;;;;24.51;54.07;99799.03;7312896;19;129782;-37
2022/06/12 09:32:42;;;;;;;;;;;;;;;24.67;54.25;99813.13;7312246;19;129813;-36
2022/06/12 09:35:11;;;;;;;;;;;;;;;24.70;54.38;99806.75;7315290;19;130377;-36
2022/06/12 09:40:35;;;;;;;;;;;;;;;24.76;54.48;99800.88;7314799;19;129149;-37
2022/06/12 09:43:26;;;;;;;;;;;;;;;24.74;53.78;99798.41;7312524;19;131772;-37
2022/06/12 09:45:51;;;;;;;;;;;;;;;24.75;53.94;99809.75;7310371;19;132569;-36
2022/06/12 09:48:30;;;;;;;;;;;;;;;24.76;54.20;99798.25;7309882;19;130216;-37
2022/06/12 09:51:22;;;;;;;;;;;;;;;24.66;54.69;99769.38;7313356;19;129386;-37
2022/06/12 09:53:57;;;;;;;;;;;;;;;24.75;54.49;99794.78;7313158;19;130216;-36
2022/06/12 09:56:27;;;;;;;;;;;;;;;24.76;54.53;99790.38;7310180;19;129694;-37
2022/06/12 09:58:59;;;;;;;;;;;;;;;24.13;49.30;99787.88;7307996;19;129191;-37
2022/06/12 10:01:33;;;;;;;;;;;;;;;24.01;48.74;99783.88;7311814;19;129238;-35
2022/06/12 10:04:10;;;;;;;;;;;;;;;24.03;48.06;99781.09;7312919;19;130364;-37
2022/06/12 10:06:50;;;;;;;;;;;;;;;24.34;53.67;99780.53;7311467;19;129336;-37
2022/06/12 10:09:35;;;;;;;;;;;;;;;24.49;54.19;99778.97;7310491;19;129820;-37
2022/06/12 10:12:15;;;;;;;;;;;;;;;24.61;54.04;99776.09;7310594;19;130088;-37
2022/06/12 10:14:43;;;;;;;;;;;;;;;24.67;53.72;99772.84;7312909;19;130113;-37
2022/06/12 10:17:15;;;;;;;;;;;;;;;24.70;53.58;99769.94;7312202;19;129247;-38
2022/06/12 10:19:45;;;;;;;;;;;;;;;24.71;54.01;99771.59;7310282;19;129402;-37
2022/06/12 10:22:16;;;;;;;;;;;;;;;24.74;53.85;99771.28;7312772;19;129028;-37
2022/06/12 10:24:41;;;;;;;;;;;;;;;24.75;54.17;99768.50;7313528;19;129506;-37
2022/06/12 10:27:08;;;;;;;;;;;;;;;24.75;54.44;99770.28;7311139;19;130437;-36
2022/06/12 10:29:48;;;;;;;;;;;;;;;24.76;54.21;99766.72;7309266;19;129413;-37
2022/06/12 10:32:15;;;;;;;;;;;;;;;24.77;54.45;99766.53;7312401;19;129484;-37
2022/06/12 10:34:41;;;;;;;;;;;;;;;24.75;54.76;99763.25;7313389;19;130422;-36
2022/06/12 10:37:10;;;;;;;;;;;;;;;24.75;54.65;99767.66;7312109;19;131207;-37
2022/06/12 10:39:36;;;;;;;;;;;;;;;24.48;50.46;99777.34;7312778;19;129130;-37
2022/06/12 10:42:03;;;;;;;;;;;;;;;24.09;48.65;99780.47;7312969;19;129623;-37
2022/06/12 10:44:36;;;;;;;;;;;;;;;24.00;48.86;99766.44;7312247;19;131394;-36
2022/06/12 10:47:17;;;;;;;;;;;;;;;24.12;52.78;99773.13;7312581;19;129567;-36
2022/06/12 10:49:42;;;;;;;;;;;;;;;24.38;53.52;99770.50;7309097;19;130044;-37
2022/06/12 10:52:16;;;;;;;;;;;;;;;24.51;53.75;99770.13;7311182;19;129266;-37
2022/06/12 10:54:42;;;;;;;;;;;;;;;24.59;53.85;99763.13;7311274;19;130400;-37
2022/06/12 10:57:23;;;;;;;;;;;;;;;24.66;54.20;99760.69;7311206;19;130658;-36
2022/06/12 10:59:59;;;;;;;;;;;;;;;24.71;54.42;99755.81;7311279;19;129262;-37
2022/06/12 11:02:43;;;;;;;;;;;;;;;24.72;53.80;99755.66;7310219;19;129433;-37
2022/06/12 11:05:14;;;;;;;;;;;;;;;24.73;54.38;99753.84;7312437;19;130552;-37
2022/06/12 11:07:53;;;;;;;;;;;;;;;24.73;54.51;99752.03;7309843;19;130154;-37
2022/06/12 11:10:38;;;;;;;;;;;;;;;24.75;54.08;99744.00;7307040;19;130150;-37
2022/06/12 11:13:04;;;;;;;;;;;;;;;24.74;53.70;99730.06;7310805;19;129677;-37
2022/06/12 11:15:39;;;;;;;;;;;;;;;24.75;54.36;99746.63;7309780;19;130162;-37
2022/06/12 11:18:08;;;;;;;;;;;;;;;24.75;54.52;99726.44;7309436;19;129506;-36
2022/06/12 11:20:44;;;;;;;;;;;;;;;24.43;50.39;99727.03;7312802;19;129271;-37
2022/06/12 11:23:18;;;;;;;;;;;;;;;24.06;49.06;99734.34;7311521;19;129670;-37
2022/06/12 11:25:56;;;;;;;;;;;;;;;24.02;48.55;99730.34;7312135;19;131518;-37
2022/06/12 11:28:43;;;;;;;;;;;;;;;24.16;53.32;99726.34;7308576;19;129928;-37
2022/06/12 11:31:20;;;;;;;;;;;;;;;24.41;53.63;99717.66;7308260;19;130928;-37
2022/06/12 11:34:24;;;;;;;;;;;;;;;24.54;54.18;99711.97;7312404;19;130096;-37
2022/06/12 11:37:07;;;;;;;;;;;;;;;24.63;54.27;99705.78;7307075;19;130350;-36
2022/06/12 11:39:47;;;;;;;;;;;;;;;24.67;53.96;99713.22;7303504;19;131334;-37
2022/06/12 11:42:35;;;;;;;;;;;;;;;24.71;54.41;99708.50;7309378;19;129975;-38
2022/06/12 11:45:03;;;;;;;;;;;;;;;24.72;54.12;99710.13;7308142;19;131019;-37
2022/06/12 11:47:41;;;;;;;;;;;;;;;24.75;54.14;99709.81;7309473;19;129418;-37
2022/06/12 11:50:16;;;;;;;;;;;;;;;24.73;53.97;99707.34;7307110;19;129958;-37
2022/06/12 11:52:53;;;;;;;;;;;;;;;24.75;54.62;99699.28;7311144;19;129247;-37
2022/06/12 11:55:24;;;;;;;;;;;;;;;24.75;54.03;99694.88;7308161;19;130442;-37
2022/06/12 11:58:00;;;;;;;;;;;;;;;24.77;54.33;99699.97;7308468;19;130760;-39
2022/06/12 12:00:47;;;;;;;;;;;;;;;24.77;54.93;99697.34;7310171;19;129357;-38
2022/06/12 12:03:24;;;;;;;;;;;;;;;24.13;49.24;99697.78;7309669;19;129013;-40
2022/06/12 12:05:52;;;;;;;;;;;;;;;24.04;48.20;99709.19;7309545;19;129827;-39
2022/06/12 12:08:33;;;;;;;;;;;;;;;24.05;49.69;99701.13;7305697;19;129820;-39
2022/06/12 12:11:02;;;;;;;;;;;;;;;24.36;54.05;99699.72;7310742;19;129225;-40
2022/06/12 12:13:29;;;;;;;;;;;;;;;24.49;53.98;99700.13;7311628;19;129300;-38
2022/06/12 12:15:58;;;;;;;;;;;;;;;24.59;54.03;99707.91;7310133;19;130426;-40
2022/06/12 12:18:23;;;;;;;;;;;;;;;24.65;54.44;99704.66;7308567;19;130045;-40
2022/06/12 12:20:50;;;;;;;;;;;;;;;24.69;53.73;99690.25;7309988;19;129254;-40
2022/06/12 12:23:19;;;;;;;;;;;;;;;24.69;54.06;99689.41;7310980;19;129476;-41
2022/06/12 12:25:48;;;;;;;;;;;;;;;24.72;54.54;99684.69;7309257;19;129231;-41
2022/06/12 12:28:14;;;;;;;;;;;;;;;24.74;53.78;99687.97;7306908;19;130832;-40
2022/06/12 12:30:41;;;;;;;;;;;;;;;24.73;53.88;99680.22;7305321;19;130532;-39
2022/06/12 12:33:11;;;;;;;;;;;;;;;24.75;54.43;99679.09;7308817;19;129240;-38
2022/06/12 12:41:15;;;;;;;;;;;;;;;24.77;54.90;99682.41;7305404;19;129135;-39
2022/06/12 12:43:54;;;;;;;;;;;;;;;24.25;49.48;99681.59;7309191;19;129980;-37
2022/06/12 12:46:22;;;;;;;;;;;;;;;24.06;48.98;99681.78;7308088;19;129441;-38
2022/06/12 12:48:48;;;;;;;;;;;;;;;24.04;48.52;99673.25;7305249;19;132448;-40
2022/06/12 12:51:24;;;;;;;;;;;;;;;24.26;53.79;99683.22;7315689;19;129513;-40
2022/06/12 12:53:52;;;;;;;;;;;;;;;24.45;53.80;99685.66;7313507;19;129254;-37
2022/06/12 12:56:26;;;;;;;;;;;;;;;24.54;54.07;99680.44;7316401;19;129863;-40
2022/06/12 12:59:00;;;;;;;;;;;;;;;24.63;54.49;99668.97;7310626;19;131366;-38
2022/06/12 13:01:28;;;;;;;;;;;;;;;24.69;54.10;99681.53;7315884;19;130125;-37
2022/06/12 13:03:58;;;;;;;;;;;;;;;24.72;54.15;99673.31;7315134;19;129160;-37
2022/06/12 13:06:39;;;;;;;;;;;;;;;24.66;54.02;99660.78;7314946;19;129460;-40
2022/06/12 13:09:04;;;;;;;;;;;;;;;24.65;54.54;99662.59;7311120;19;129633;-40
2022/06/12 13:11:45;;;;;;;;;;;;;;;24.73;54.32;99675.78;7313674;19;130433;-38